Hundvaag 1 weather for Apr 2010
Month no. 274
Obs.
Da.
Temp. Dew Point Precip. Wind
Speed
Wind gusts Cloud cover Press. Humidity Wind dir. Sunny OPT
01.04.2010 6,2 0,1 0,5 18,5 18,5 1 997,2 65,0 135,0   50,0 %
02.04.2010 4,1 1,8 7,0 14,8 14,8 1 1007,3 85,0 135,0   45,0 %
03.04.2010 8,7 1,6 3,0 1,9 1,9 10 1012,8 61,0 45,0 1 85,0 %
04.04.2010 6,9 -0,3 0,0 13,0 15,1 1 1012,4 60,0 112,5   55,0 %
05.04.2010 6,5 3,1 2,6 5,6 5,6 1 1019,2 79,0 157,5   60,0 %
06.04.2010 7,2 2,9 0,0 14,8 14,8 1 1019,5 74,0 135,0   52,5 %
07.04.2010 9,3 3,7 0,0 18,5 18,5 3 1020,2 68,0 157,5 1 57,5 %
08.04.2010 7,8 4,7 0,0 0,0 0,0 1 1022,6 81,0 180,0   65,0 %
09.04.2010 6,9 5,1 0,8 7,9 7,9 3 1027,7 88,0 270,0 1 62,5 %
10.04.2010 3,8 1,9 0,0 0,0 0,0 10 1037,0 86,0   1 82,5 %
11.04.2010 3,8 0,0 0,0 0,0 0,0 9 1037,8 86,0   1 80,0 %
12.04.2010 4,4 1,9 0,0 0,0 0,0 10 1036,5 84,0 0,0 1 82,5 %
13.04.2010 6,4 4,1 0,0 2,1 2,1 10 1028,0 85,0 225,0   85,0 %
14.04.2010 6,9 2,9 0,0 1,9 1,9 10 1029,3 76,0 22,5 1 85,0 %
15.04.2010 6,1 2,6 0,0 4,3 4,3 2 1023,6 78,0 292,5   62,5 %
16.04.2010 4,3 1,5 1,2 24,1 24,1 7 1022,9 82,0 270,0 1 60,0 %
17.04.2010 6,8 4,9 1,2 7,4 7,4 0 1013,1 88,0 225,0 1 55,0 %
18.04.2010 3,6 0,3 2,3 9,3 9,3 7 1011,4 79,0 202,5 1 70,0 %
19.04.2010 2,1 -1,5 0,0 1,9 2,6 7 1019,2 77,0 315,0 1 72,5 %
20.04.2010 8,4 0,1 0,0 3,7 3,7 1 1018,5 56,0 225,0   62,5 %
21.04.2010 3,3 0,5 3,5 4,0 4,0 5 1010,4 82,0 90,0 1 65,0 %
22.04.2010 4,8 2,0 0,0 0,0 0,0 2 1016,1 82,0 247,5   62,5 %
23.04.2010 3,8 0,5 2,2 7,4 7,9 4 1012,4 79,0 270,0 1 62,5 %
24.04.2010 3,8 -2,0 0,5 3,7 3,7 8 1022,2 66,0 225,0 1 75,0 %
25.04.2010 6,6 2,3 0,3 2,6 2,6 1 1026,6 74,0 90,0 1 62,5 %
26.04.2010 10,8 2,4 0,0 11,1 11,1 1 1019,9 56,0 112,5   60,0 %
27.04.2010 8,4 6,0 3,0 5,6 5,6 0 1021,9 85,0 225,0 1 57,5 %
28.04.2010 6,3 3,9 5,0 3,7 3,7 0 1021,6 85,0 45,0   55,0 %
29.04.2010 10,2 7,9 15,8 5,6 6,3 1 1007,3 86,0 135,0 1 52,5 %
30.04.2010 8,6 6,9 2,0 0,0 0,0 1 1002,9 89,0 0,0 1 65,0 %
                       
Avrg/Sum 6,2 2,4 50,9 6,4 6,6 3,9 1019,3 77,4 162,3 18 64,9 %